Time;durP1;ratioP1;P1;durP2;ratioP2;P2;SDS_P1;SDS_P2;PMS_P1;PMS_P2;Temp;Humidity;BMP_temperature;BMP_pressure;BME280_temperature;BME280_humidity;BME280_pressure;Samples;Min_cycle;Max_cycle;Signal;HPM_P1;HPM_P2
2023/12/27 00:03:03;;;;;;;14.75;5.97;;;;;;;12.95;63.49;99422.31;1723515;83;21355;-87
2023/12/27 00:06:02;;;;;;;15.05;5.65;;;;;;;12.99;63.50;99415.34;1735902;82;22587;-86
2023/12/27 00:09:02;;;;;;;16.45;6.30;;;;;;;12.93;63.74;99406.03;1724892;82;21311;-86
2023/12/27 00:12:08;;;;;;;15.35;6.05;;;;;;;12.84;64.03;99399.61;1740230;82;21337;-85
2023/12/27 00:15:15;;;;;;;11.83;5.72;;;;;;;12.46;64.77;99407.96;1722140;83;21955;-86
2023/12/27 00:18:20;;;;;;;17.50;6.87;;;;;;;12.70;64.21;99415.23;1723457;83;21334;-86
2023/12/27 00:21:26;;;;;;;15.08;6.00;;;;;;;13.07;63.49;99417.00;1723038;83;21358;-86
2023/12/27 00:24:33;;;;;;;14.83;7.22;;;;;;;12.87;64.04;99423.36;1721996;83;21266;-86
2023/12/27 00:27:39;;;;;;;17.73;6.15;;;;;;;12.86;63.86;99431.82;1734468;82;21355;-86
2023/12/27 00:30:48;;;;;;;12.90;6.28;;;;;;;12.61;65.32;99428.85;1754329;82;21326;-86
2023/12/27 00:33:55;;;;;;;14.03;6.72;;;;;;;12.60;65.12;99427.17;1753954;82;21302;-86
2023/12/27 00:37:02;;;;;;;11.25;6.30;;;;;;;12.46;65.87;99425.79;1723319;83;21352;-86
2023/12/27 00:40:08;;;;;;;12.45;5.85;;;;;;;12.90;64.53;99421.58;1723152;83;21382;-85
2023/12/27 00:43:14;;;;;;;17.85;5.97;;;;;;;12.63;65.28;99421.27;1738768;82;21967;-86
2023/12/27 00:46:19;;;;;;;14.35;5.17;;;;;;;12.44;66.22;99415.56;1723341;83;21370;-85
2023/12/27 00:49:25;;;;;;;17.95;6.35;;;;;;;12.43;66.76;99424.86;1729573;82;21295;-86
2023/12/27 00:52:32;;;;;;;11.15;5.58;;;;;;;12.49;66.36;99417.68;1753129;82;21334;-85
2023/12/27 00:55:39;;;;;;;11.15;6.10;;;;;;;12.56;65.94;99406.17;1753469;82;21314;-86
2023/12/27 00:58:46;;;;;;;9.75;5.42;;;;;;;12.83;65.72;99401.52;1732146;82;21881;-86
2023/12/27 01:01:55;;;;;;;11.80;5.33;;;;;;;12.79;65.40;99396.97;1724646;83;21334;-86
2023/12/27 01:05:03;;;;;;;13.50;5.95;;;;;;;12.86;65.33;99404.38;1724262;83;21908;-86
2023/12/27 01:08:11;;;;;;;15.80;5.67;;;;;;;12.63;65.77;99408.92;1731344;82;21298;-86
2023/12/27 01:11:16;;;;;;;18.10;5.30;;;;;;;12.91;65.34;99394.97;1754598;82;21338;-86
2023/12/27 01:14:23;;;;;;;15.60;6.17;;;;;;;12.81;65.22;99403.64;1739113;82;21889;-86
2023/12/27 01:17:29;;;;;;;13.50;5.90;;;;;;;12.79;65.46;99394.77;1753301;82;21342;-86
2023/12/27 01:20:35;;;;;;;11.50;5.58;;;;;;;13.06;64.92;99396.94;1739015;82;21302;-86
2023/12/27 01:23:40;;;;;;;12.90;6.35;;;;;;;13.20;64.19;99395.01;1723407;83;21299;-85
2023/12/27 01:26:46;;;;;;;11.65;5.40;;;;;;;13.29;63.76;99403.36;1723498;83;21347;-86
2023/12/27 01:29:54;;;;;;;10.53;5.35;;;;;;;13.31;63.59;99403.97;1740219;82;21297;-86
2023/12/27 01:33:01;;;;;;;11.50;5.58;;;;;;;13.39;62.89;99400.16;1753244;82;21338;-86
2023/12/27 01:36:14;;;;;;;11.65;6.03;;;;;;;12.87;64.28;99405.52;1744030;82;21299;-86
2023/12/27 01:39:20;;;;;;;16.80;6.62;;;;;;;13.18;63.99;99404.00;1742795;81;21344;-86
2023/12/27 01:42:25;;;;;;;13.75;5.10;;;;;;;12.87;64.59;99415.66;1732105;82;21951;-86
2023/12/27 01:45:32;;;;;;;10.85;5.10;;;;;;;12.88;64.92;99419.55;1737882;81;21389;-86
2023/12/27 01:48:38;;;;;;;12.28;6.20;;;;;;;12.67;65.56;99421.17;1766022;81;21319;-86
2023/12/27 01:51:45;;;;;;;11.43;5.92;;;;;;;12.73;65.32;99425.80;1740798;81;21750;-86
2023/12/27 01:54:50;;;;;;;15.05;5.78;;;;;;;12.08;67.30;99426.05;1735691;82;21910;-86
2023/12/27 01:57:55;;;;;;;13.65;6.20;;;;;;;12.65;66.27;99432.34;1735476;82;21368;-86
2023/12/27 02:01:02;;;;;;;12.73;6.53;;;;;;;13.01;64.52;99433.27;1735584;82;21295;-86
2023/12/27 02:04:08;;;;;;;15.23;6.45;;;;;;;12.74;65.32;99424.73;1734359;82;21399;-86
2023/12/27 02:07:13;;;;;;;21.82;6.08;;;;;;;12.66;65.73;99437.32;1734316;82;21417;-86
2023/12/27 02:10:21;;;;;;;11.95;6.00;;;;;;;12.37;66.28;99428.95;1735719;81;21858;-86
2023/12/27 02:13:28;;;;;;;14.58;6.30;;;;;;;12.38;66.27;99431.50;1735329;81;21325;-87
2023/12/27 02:16:34;;;;;;;12.88;5.35;;;;;;;12.60;65.12;99428.55;1734994;82;21345;-86
2023/12/27 02:19:40;;;;;;;18.12;6.50;;;;;;;12.63;65.05;99427.59;1735633;82;21313;-86
2023/12/27 02:22:47;;;;;;;12.20;6.70;;;;;;;12.79;64.38;99427.16;1735676;82;21317;-85
2023/12/27 02:25:53;;;;;;;12.28;5.92;;;;;;;12.94;64.12;99436.56;1765774;81;21358;-86
2023/12/27 02:28:57;;;;;;;16.05;6.75;;;;;;;12.23;66.06;99434.44;1753011;81;21334;-85
2023/12/27 02:32:04;;;;;;;19.75;7.28;;;;;;;12.40;65.93;99430.75;1757750;80;21295;-86
2023/12/27 02:35:09;;;;;;;12.82;7.42;;;;;;;12.59;65.42;99439.20;1758692;81;21322;-86
2023/12/27 02:38:16;;;;;;;13.80;6.65;;;;;;;12.39;65.72;99430.44;1719889;83;21335;-85
2023/12/27 02:41:22;;;;;;;13.95;7.58;;;;;;;12.30;66.35;99433.06;1721580;83;21379;-85
2023/12/27 02:44:29;;;;;;;12.82;6.72;;;;;;;12.38;66.35;99435.61;1709455;83;21359;-86
2023/12/27 02:47:34;;;;;;;14.00;7.53;;;;;;;12.57;65.94;99446.81;1724033;83;21359;-86
2023/12/27 02:50:39;;;;;;;11.93;6.50;;;;;;;12.38;66.53;99452.59;1721355;83;21318;-86
2023/12/27 02:53:45;;;;;;;14.95;8.35;;;;;;;12.34;66.88;99451.32;1696227;84;21330;-85
2023/12/27 02:56:52;;;;;;;15.00;6.75;;;;;;;12.44;66.39;99449.01;1694772;84;21335;-86
2023/12/27 02:59:57;;;;;;;12.28;6.53;;;;;;;12.48;66.09;99459.88;1695196;84;21908;-86
2023/12/27 03:03:04;;;;;;;12.33;6.78;;;;;;;12.36;66.33;99459.64;1721802;83;21901;-86
2023/12/27 03:06:09;;;;;;;13.88;6.83;;;;;;;12.28;66.60;99468.09;1725985;83;21360;-86
2023/12/27 03:09:16;;;;;;;12.73;6.00;;;;;;;12.43;66.28;99470.11;1706122;84;21877;-86
2023/12/27 03:12:23;;;;;;;11.90;5.90;;;;;;;12.69;65.41;99464.31;1706165;84;21898;-86
2023/12/27 03:15:16;;;;;;;14.28;6.83;;;;;;;12.51;65.57;99466.30;1705252;84;21339;-86
2023/12/27 03:18:22;;;;;;;13.93;6.22;;;;;;;12.42;65.49;99459.33;1705271;84;21339;-86
2023/12/27 03:21:30;;;;;;;12.13;6.35;;;;;;;12.53;65.57;99457.36;1704706;83;21342;-85
2023/12/27 03:24:36;;;;;;;17.67;6.67;;;;;;;12.26;66.08;99440.02;1704858;84;21902;-86
2023/12/27 03:27:42;;;;;;;17.52;6.15;;;;;;;12.22;66.04;99441.48;1705412;84;21362;-86
2023/12/27 03:30:49;;;;;;;16.07;7.05;;;;;;;12.20;66.35;99446.34;1705210;82;21334;-85
2023/12/27 03:33:56;;;;;;;15.35;7.03;;;;;;;12.22;66.65;99446.96;1705205;84;21368;-86
2023/12/27 03:37:03;;;;;;;12.80;7.60;;;;;;;12.50;65.72;99446.27;1703872;83;21311;-86
2023/12/27 03:40:09;;;;;;;15.63;7.20;;;;;;;12.38;66.06;99436.98;1702972;84;21338;-86
2023/12/27 03:43:16;;;;;;;13.35;6.35;;;;;;;12.44;65.72;99432.02;1711742;82;21350;-86
2023/12/27 03:46:22;;;;;;;11.85;6.05;;;;;;;12.40;65.59;99426.63;1742890;81;21973;-86
2023/12/27 03:49:28;;;;;;;12.00;6.62;;;;;;;12.44;65.25;99426.54;1715375;82;21901;-85
2023/12/27 03:52:35;;;;;;;14.03;6.55;;;;;;;12.22;65.90;99420.39;1742507;82;21710;-85
2023/12/27 03:55:40;;;;;;;14.80;7.12;;;;;;;12.24;66.19;99420.20;1747240;82;21330;-86
2023/12/27 03:58:46;;;;;;;12.63;6.42;;;;;;;12.22;66.11;99419.02;1746236;82;21350;-86
2023/12/27 04:01:47;;;;;;;16.65;7.50;;;;;;;12.43;65.35;99416.63;1723676;82;21335;-86
2023/12/27 04:04:40;;;;;;;13.05;7.33;;;;;;;12.41;65.57;99421.46;1733925;82;21354;-86
2023/12/27 04:07:47;;;;;;;15.85;6.20;;;;;;;12.53;65.15;99429.39;1734984;82;21387;-86
2023/12/27 04:10:53;;;;;;;10.88;6.65;;;;;;;12.47;65.09;99426.12;1735337;82;21355;-86
2023/12/27 04:14:00;;;;;;;16.40;6.35;;;;;;;12.47;65.08;99426.12;1735452;82;21328;-85
2023/12/27 04:17:06;;;;;;;12.58;6.37;;;;;;;12.52;64.82;99433.73;1732448;82;21328;-86
2023/12/27 04:20:13;;;;;;;14.13;6.15;;;;;;;12.47;65.03;99439.84;1748247;82;21897;-86
2023/12/27 04:23:19;;;;;;;16.05;6.87;;;;;;;12.31;65.60;99432.53;1714184;82;21603;-86
2023/12/27 04:26:24;;;;;;;12.47;6.80;;;;;;;12.02;66.28;99418.98;1706153;84;21326;-86
2023/12/27 04:29:30;;;;;;;13.78;6.47;;;;;;;12.01;66.31;99427.42;1706780;82;21365;-86
2023/12/27 04:32:38;;;;;;;12.80;7.22;;;;;;;12.05;66.05;99434.19;1735271;82;21862;-85
2023/12/27 04:35:45;;;;;;;12.18;6.72;;;;;;;11.94;66.50;99424.65;1733891;82;22478;-86
2023/12/27 04:38:50;;;;;;;14.23;6.47;;;;;;;11.72;66.90;99428.57;1734641;82;21332;-85
2023/12/27 04:41:57;;;;;;;11.00;6.37;;;;;;;11.77;66.83;99433.75;1735347;82;21319;-85
2023/12/27 04:45:04;;;;;;;14.95;7.35;;;;;;;11.67;67.53;99449.73;1735185;82;21979;-86
2023/12/27 04:48:10;;;;;;;12.25;6.67;;;;;;;11.76;66.88;99457.22;1732811;82;21371;-86
2023/12/27 04:51:16;;;;;;;17.85;7.65;;;;;;;11.58;67.46;99446.84;1733633;82;21886;-86
2023/12/27 04:54:23;;;;;;;13.40;7.28;;;;;;;11.68;67.13;99440.98;1735104;82;21983;-86
2023/12/27 04:57:31;;;;;;;18.10;7.92;;;;;;;11.78;67.17;99429.11;1735098;82;21896;-86
2023/12/27 05:00:37;;;;;;;11.85;6.37;;;;;;;11.86;66.98;99434.45;1735017;82;21920;-86
2023/12/27 05:03:44;;;;;;;18.10;7.40;;;;;;;11.68;67.43;99424.02;1737311;81;21323;-86
2023/12/27 05:06:50;;;;;;;15.58;5.95;;;;;;;11.64;67.79;99417.78;1735159;82;22638;-85
2023/12/27 05:09:56;;;;;;;13.48;6.95;;;;;;;11.51;67.91;99423.52;1733939;82;21349;-86
2023/12/27 05:13:02;;;;;;;12.78;6.65;;;;;;;11.43;68.14;99431.05;1735154;82;21325;-86
2023/12/27 05:16:08;;;;;;;13.32;7.35;;;;;;;11.58;67.91;99426.83;1735239;81;21965;-86
2023/12/27 05:19:14;;;;;;;17.30;7.65;;;;;;;11.72;67.64;99434.89;1764740;81;21329;-86
2023/12/27 05:22:21;;;;;;;12.47;6.97;;;;;;;11.80;67.19;99437.11;1761705;81;21337;-86
2023/12/27 05:25:26;;;;;;;11.08;6.58;;;;;;;12.02;66.43;99443.66;1735030;82;21338;-86
2023/12/27 05:28:32;;;;;;;17.70;6.90;;;;;;;11.65;67.42;99436.74;1734973;82;21667;-86
2023/12/27 05:31:37;;;;;;;13.03;6.70;;;;;;;11.66;67.03;99451.28;1750646;81;21342;-86
2023/12/27 05:34:46;;;;;;;16.17;7.42;;;;;;;11.57;67.33;99452.50;1735155;82;22761;-85
2023/12/27 05:37:51;;;;;;;19.10;7.95;;;;;;;11.82;66.25;99450.97;1743204;81;21378;-86
2023/12/27 05:40:58;;;;;;;14.38;6.70;;;;;;;11.81;66.10;99456.11;1764181;81;21314;-86
2023/12/27 05:44:04;;;;;;;13.08;6.87;;;;;;;11.70;66.42;99453.94;1765483;81;21310;-86
2023/12/27 05:47:11;;;;;;;12.68;6.40;;;;;;;11.57;66.42;99453.88;1747345;81;21338;-86
2023/12/27 05:50:17;;;;;;;13.15;6.72;;;;;;;11.69;66.24;99469.53;1747427;82;21904;-86
2023/12/27 05:53:23;;;;;;;14.63;6.90;;;;;;;11.97;65.03;99468.09;1748345;82;21299;-85
2023/12/27 05:56:30;;;;;;;15.63;7.65;;;;;;;12.02;65.02;99471.59;1748417;82;21323;-86
2023/12/27 05:59:36;;;;;;;16.95;8.00;;;;;;;11.93;65.15;99473.66;1747760;82;21311;-86
2023/12/27 06:02:41;;;;;;;19.57;8.13;;;;;;;12.13;64.58;99472.88;1747769;82;21913;-86
2023/12/27 06:05:47;;;;;;;10.58;6.20;;;;;;;12.08;64.65;99478.13;1748249;82;21307;-86
2023/12/27 06:08:53;;;;;;;15.78;6.90;;;;;;;11.95;65.37;99472.08;1740978;82;21312;-86
2023/12/27 06:11:59;;;;;;;14.80;7.72;;;;;;;12.12;65.11;99472.56;1734638;82;21895;-85
2023/12/27 06:15:07;;;;;;;11.18;6.35;;;;;;;12.12;64.96;99480.26;1707783;82;21326;-86
2023/12/27 06:18:12;;;;;;;12.03;6.83;;;;;;;12.22;64.95;99486.71;1736378;82;21984;-85
2023/12/27 06:21:18;;;;;;;10.28;6.80;;;;;;;12.48;64.56;99477.19;1748293;82;21314;-86
2023/12/27 06:24:26;;;;;;;13.28;6.70;;;;;;;12.54;64.56;99482.35;1725059;82;21318;-86
2023/12/27 06:27:33;;;;;;;13.85;6.97;;;;;;;12.34;65.05;99482.33;1715885;82;21333;-86
2023/12/27 06:30:40;;;;;;;12.53;7.12;;;;;;;12.28;65.50;99483.16;1702066;84;21679;-85
2023/12/27 06:33:48;;;;;;;16.55;6.95;;;;;;;12.40;65.46;99478.74;1709377;83;21988;-86
2023/12/27 06:36:55;;;;;;;14.93;7.33;;;;;;;12.40;65.62;99473.79;1713244;83;21877;-86
2023/12/27 06:40:03;;;;;;;12.78;6.45;;;;;;;12.43;65.57;99476.13;1721721;82;21360;-85
2023/12/27 06:43:08;;;;;;;11.57;6.53;;;;;;;12.38;65.49;99484.13;1723984;83;21950;-85
2023/12/27 06:46:15;;;;;;;11.80;6.03;;;;;;;12.36;65.64;99488.44;1724712;83;21335;-86
2023/12/27 06:49:21;;;;;;;14.78;6.87;;;;;;;12.54;65.08;99483.72;1723336;82;21348;-86
2023/12/27 06:52:28;;;;;;;13.10;6.45;;;;;;;12.40;65.49;99491.08;1742686;82;22520;-86
2023/12/27 06:55:33;;;;;;;11.20;6.33;;;;;;;12.48;65.40;99485.94;1783715;80;21349;-86
2023/12/27 06:58:39;;;;;;;10.98;6.17;;;;;;;12.86;64.34;99491.66;1783499;80;21294;-86
2023/12/27 07:01:45;;;;;;;12.15;6.28;;;;;;;12.75;64.33;99488.16;1756854;80;21319;-87
2023/12/27 07:04:51;;;;;;;11.90;5.70;;;;;;;12.81;64.22;99494.20;1750945;81;21992;-86
2023/12/27 07:07:57;;;;;;;12.15;6.22;;;;;;;12.66;64.86;99494.41;1752460;81;22306;-87
2023/12/27 07:11:02;;;;;;;10.63;5.80;;;;;;;12.84;64.43;99493.76;1748529;81;21282;-86
2023/12/27 07:14:08;;;;;;;9.20;5.30;;;;;;;12.81;64.45;99495.58;1744217;82;21286;-86
2023/12/27 07:17:14;;;;;;;10.72;6.28;;;;;;;13.20;63.39;99495.23;1730441;82;21329;-86
2023/12/27 07:20:21;;;;;;;12.82;5.70;;;;;;;13.36;62.64;99500.33;1743623;81;21357;-87
2023/12/27 07:23:28;;;;;;;27.73;6.97;;;;;;;13.27;62.86;99507.10;1745115;82;21331;-87
2023/12/27 07:26:34;;;;;;;9.18;5.12;;;;;;;13.22;62.84;99510.98;1725497;81;21358;-88
2023/12/27 07:29:41;;;;;;;7.05;4.50;;;;;;;13.13;63.45;99505.39;1761893;80;21307;-87
2023/12/27 07:32:48;;;;;;;8.65;4.67;;;;;;;13.32;62.77;99518.29;1756313;80;21347;-87
2023/12/27 07:35:56;;;;;;;9.00;4.50;;;;;;;13.47;62.49;99525.75;1753743;80;21920;-87
2023/12/27 07:39:05;;;;;;;13.90;5.00;;;;;;;13.44;62.16;99528.92;1736695;82;22247;-87
2023/12/27 07:42:11;;;;;;;11.55;4.45;;;;;;;13.38;61.81;99528.41;1745708;82;21936;-86
2023/12/27 07:45:21;;;;;;;6.22;3.42;;;;;;;13.46;61.21;99528.20;1738438;81;21298;-87
2023/12/27 07:48:26;;;;;;;15.35;3.87;;;;;;;13.31;61.18;99537.17;1733003;81;21888;-87
2023/12/27 07:51:32;;;;;;;10.28;3.62;;;;;;;13.24;61.16;99542.69;1747907;81;21644;-87
2023/12/27 07:54:45;;;;;;;8.08;3.27;;;;;;;13.07;61.58;99545.50;1750088;81;21326;-87
2023/12/27 07:57:51;;;;;;;;;;;;;;;12.92;62.10;99548.98;1733973;81;21358;-87
2023/12/27 08:00:58;;;;;;;18.75;3.15;;;;;;;13.24;61.07;99548.17;1735369;81;20325;-87
2023/12/27 08:04:04;;;;;;;47.30;6.22;;;;;;;13.32;60.44;99551.25;1745912;81;21349;-89
2023/12/27 08:07:05;;;;;;;21.60;3.35;;;;;;;12.95;60.97;99554.06;1758449;81;21333;-86
2023/12/27 08:10:02;;;;;;;28.70;4.80;;;;;;;13.02;60.64;99554.36;1745281;81;21338;-86
2023/12/27 09:17:32;;;;;;;2.10;1.20;;;;;;;13.44;52.04;99561.05;1716521;81;21215;-86
2023/12/27 09:20:38;;;;;;;3.42;1.57;;;;;;;13.71;50.66;99539.33;1719095;82;21362;-86
2023/12/27 09:23:45;;;;;;;3.40;1.40;;;;;;;13.69;50.37;99541.97;1707001;83;21328;-85
2023/12/27 09:26:51;;;;;;;3.00;1.32;;;;;;;13.50;50.06;99536.33;1702017;84;21296;-86
2023/12/27 09:29:58;;;;;;;4.78;2.00;;;;;;;13.58;50.63;99537.98;1699658;82;21339;-86
2023/12/27 09:33:05;;;;;;;3.27;1.40;;;;;;;13.52;51.15;99536.95;1704899;82;21293;-85
2023/12/27 09:36:13;;;;;;;3.62;1.50;;;;;;;13.68;50.79;99545.25;1706917;82;21351;-85
2023/12/27 09:39:19;;;;;;;4.45;1.85;;;;;;;13.72;50.50;99539.64;1718885;82;22232;-86
2023/12/27 09:42:42;;;;;;;3.98;1.75;;;;;;;13.94;49.85;99547.62;1711499;82;21316;-86
2023/12/27 09:45:49;;;;;;;3.37;1.70;;;;;;;13.90;49.02;99546.37;1711186;82;22076;-86
2023/12/27 09:49:04;;;;;;;4.28;1.62;;;;;;;14.00;49.57;99537.97;1734829;81;21294;-87
2023/12/27 09:52:15;;;;;;;5.28;1.87;;;;;;;14.21;49.02;99540.09;1737009;81;21366;-86
2023/12/27 09:55:25;;;;;;;3.33;1.57;;;;;;;14.52;48.63;99542.09;1708778;83;21931;-87
2023/12/27 09:58:45;;;;;;;2.37;1.52;;;;;;;14.56;48.46;99543.34;1716935;82;21860;-87
2023/12/27 10:01:59;;;;;;;3.25;1.67;;;;;;;14.56;48.46;99542.80;1703656;82;21393;-86
2023/12/27 10:05:16;;;;;;;3.25;1.65;;;;;;;14.54;48.42;99528.44;1718564;82;21303;-87
2023/12/27 10:08:23;;;;;;;6.00;1.90;;;;;;;14.66;48.08;99527.19;1708865;82;21328;-86
2023/12/27 10:11:31;;;;;;;2.98;1.47;;;;;;;14.81;47.23;99523.58;1710313;82;21390;-87
2023/12/27 10:14:38;;;;;;;2.92;1.72;;;;;;;14.39;48.47;99506.36;1715598;82;21318;-86
2023/12/27 10:17:44;;;;;;;2.60;1.30;;;;;;;14.32;48.36;99516.05;1704801;84;21379;-86
2023/12/27 10:20:52;;;;;;;6.80;1.42;;;;;;;14.04;47.97;99506.77;1701512;83;22289;-87
2023/12/27 10:23:59;;;;;;;1.67;1.05;;;;;;;13.87;48.08;99524.80;1682367;83;22187;-87
2023/12/27 10:27:06;;;;;;;3.90;1.22;;;;;;;13.91;48.44;99523.31;1697375;84;21905;-86
2023/12/27 10:30:16;;;;;;;2.50;1.32;;;;;;;14.08;49.03;99526.42;1698401;84;21319;-87
2023/12/27 10:33:23;;;;;;;2.47;1.20;;;;;;;14.07;48.75;99514.59;1678678;84;21340;-86
2023/12/27 10:36:31;;;;;;;2.67;1.20;;;;;;;13.90;48.79;99527.97;1673600;84;21870;-86
2023/12/27 10:39:38;;;;;;;4.75;1.35;;;;;;;14.01;48.20;99528.65;1700705;84;21848;-86
2023/12/27 10:42:46;;;;;;;5.17;1.62;;;;;;;14.11;47.50;99524.06;1679634;84;21302;-87
2023/12/27 10:45:52;;;;;;;5.83;1.87;;;;;;;14.10;47.07;99524.28;1705416;82;21317;-85
2023/12/27 10:48:59;;;;;;;3.55;1.50;;;;;;;14.53;45.13;99528.64;1683999;84;21319;-86
2023/12/27 10:52:06;;;;;;;4.92;1.90;;;;;;;14.47;45.68;99523.46;1695155;84;21327;-85
2023/12/27 10:55:13;;;;;;;2.95;1.50;;;;;;;14.41;46.37;99522.98;1681467;85;21278;-87
2023/12/27 10:58:28;;;;;;;4.35;1.60;;;;;;;14.33;46.99;99520.47;1679425;85;21350;-89
2023/12/27 11:01:44;;;;;;;14.98;1.95;;;;;;;14.31;47.27;99522.08;1694082;82;21291;-87
2023/12/27 11:04:54;;;;;;;5.30;2.12;;;;;;;14.11;47.53;99529.56;1684911;84;22003;-86
2023/12/27 11:08:06;;;;;;;5.92;1.70;;;;;;;14.34;47.40;99534.53;1693294;82;21752;-90
2023/12/27 11:11:16;;;;;;;2.47;1.20;;;;;;;14.56;46.77;99537.84;1652360;84;21250;-89
2023/12/27 11:14:24;;;;;;;2.73;1.43;;;;;;;14.55;46.56;99534.78;1690859;82;21366;-89
2023/12/27 11:17:30;;;;;;;4.42;1.40;;;;;;;14.46;45.63;99542.41;1703011;83;21897;-86
2023/12/27 11:20:38;;;;;;;2.98;1.45;;;;;;;14.44;45.92;99542.31;1711813;83;21282;-85
2023/12/27 11:23:44;;;;;;;2.62;1.47;;;;;;;14.43;46.33;99543.37;1724944;82;21306;-85
2023/12/27 11:26:54;;;;;;;3.35;1.47;;;;;;;14.49;46.07;99543.90;1722867;82;21346;-86
2023/12/27 11:30:01;;;;;;;5.42;1.70;;;;;;;14.63;46.29;99550.17;1734484;82;21287;-85
2023/12/27 11:33:08;;;;;;;15.40;1.98;;;;;;;14.55;45.98;99544.41;1699669;82;21327;-86
2023/12/27 11:36:17;;;;;;;18.73;2.00;;;;;;;14.64;46.12;99539.50;1727753;82;21281;-86
2023/12/27 11:39:29;;;;;;;4.20;1.57;;;;;;;14.01;47.10;99538.27;1703220;83;21358;-86
2023/12/27 11:42:35;;;;;;;7.80;1.55;;;;;;;14.02;46.93;99533.11;1695582;82;21315;-86
2023/12/27 11:46:07;;;;;;;4.35;1.45;;;;;;;13.98;47.81;99527.73;1718206;82;21352;-86
2023/12/27 11:49:12;;;;;;;4.03;1.32;;;;;;;14.26;47.19;99525.19;1721843;82;21294;-86
2023/12/27 11:52:20;;;;;;;2.95;1.60;;;;;;;14.24;47.52;99520.41;1720205;82;21302;-86
2023/12/27 11:55:28;;;;;;;4.65;1.70;;;;;;;14.25;47.93;99520.72;1718488;82;21314;-86
2023/12/27 11:58:42;;;;;;;4.55;1.62;;;;;;;14.24;47.73;99528.66;1717538;82;21913;-86
2023/12/27 12:01:49;;;;;;;4.03;1.42;;;;;;;13.79;46.75;99529.48;1734959;82;22279;-86
2023/12/27 12:05:05;;;;;;;2.77;1.65;;;;;;;14.23;46.44;99511.86;1719175;83;21374;-86
2023/12/27 12:08:35;;;;;;;3.65;1.60;;;;;;;13.76;45.91;99524.41;1729145;82;21311;-86
2023/12/27 12:11:42;;;;;;;4.42;2.05;;;;;;;13.75;46.96;99519.98;1742825;82;21335;-86
2023/12/27 12:14:48;;;;;;;23.47;2.17;;;;;;;13.89;46.38;99526.28;1724903;82;21872;-86
2023/12/27 12:17:57;;;;;;;5.30;1.87;;;;;;;13.94;46.47;99540.22;1717962;82;21304;-85
2023/12/27 12:21:04;;;;;;;5.05;1.60;;;;;;;13.85;46.34;99529.68;1730186;82;21358;-85
2023/12/27 12:24:18;;;;;;;7.20;1.90;;;;;;;13.69;46.66;99537.84;1730350;82;21866;-86
2023/12/27 14:19:46;;;;;;;4.40;1.32;;;;;;;6.53;66.68;99773.80;1711168;78;65221;-91
2023/12/27 14:23:20;;;;;;;2.80;1.60;;;;;;;6.31;67.28;99782.03;1705588;82;21371;-95
2023/12/27 14:26:24;;;;;;;2.55;1.67;;;;;;;6.26;67.58;99783.88;1692494;82;21213;-92
2023/12/27 14:29:32;;;;;;;3.72;2.10;;;;;;;6.33;67.73;99792.22;1710114;81;21331;-92
2023/12/27 14:32:39;;;;;;;3.75;1.40;;;;;;;5.94;68.45;99798.09;1700913;82;21334;-92
2023/12/27 14:35:47;;;;;;;1.25;0.93;;;;;;;5.12;71.24;99799.20;1704797;82;21300;-93
2023/12/27 14:39:04;;;;;;;1.77;1.35;;;;;;;5.68;70.62;99806.16;1704583;81;21280;-93
2023/12/27 14:42:05;;;;;;;1.72;1.20;;;;;;;5.65;70.07;99813.28;1689322;82;21346;-94
2023/12/27 14:45:17;;;;;;;1.95;1.05;;;;;;;5.66;70.53;99814.98;1684256;80;21325;-92
2023/12/27 14:48:30;;;;;;;1.77;1.10;;;;;;;5.58;70.64;99819.82;1683067;82;21358;-91
2023/12/27 14:51:37;;;;;;;3.43;1.10;;;;;;;5.54;70.32;99824.36;1659626;84;21410;-93
2023/12/27 14:54:46;;;;;;;2.20;1.00;;;;;;;5.75;69.53;99815.40;1658593;84;21281;-94
2023/12/27 14:57:57;;;;;;;2.40;1.10;;;;;;;5.86;69.23;99811.06;1636209;85;21281;-93
2023/12/27 15:01:27;;;;;;;11.40;1.12;;;;;;;5.61;69.60;99817.31;1658326;82;21267;-92
2023/12/27 15:04:39;;;;;;;2.72;1.12;;;;;;;5.74;69.25;99823.20;1632719;85;21366;-93
2023/12/27 15:07:52;;;;;;;1.05;0.90;;;;;;;5.94;68.36;99840.69;1658324;83;21198;-94
2023/12/27 15:11:24;;;;;;;3.30;1.10;;;;;;;5.62;69.02;99842.92;1642204;84;21377;-93
2023/12/27 15:14:34;;;;;;;2.17;1.10;;;;;;;5.36;69.62;99846.94;1657848;83;21236;-93
2023/12/27 15:17:52;;;;;;;1.45;1.02;;;;;;;5.43;69.86;99854.45;1666621;84;21286;-92
2023/12/27 15:21:02;;;;;;;2.35;1.12;;;;;;;5.57;69.88;99862.04;1664904;84;22500;-93
2023/12/27 15:24:17;;;;;;;4.83;1.50;;;;;;;5.56;69.66;99864.41;1652421;84;21367;-92
2023/12/27 15:27:24;;;;;;;3.85;1.17;;;;;;;5.53;68.76;99867.42;1644875;84;21364;-93
2023/12/27 15:30:46;;;;;;;4.35;1.65;;;;;;;6.25;67.40;99872.29;1647410;83;21990;-93
2023/12/27 15:34:02;;;;;;;1.70;1.30;;;;;;;5.70;68.40;99865.22;1649349;82;21285;-93
2023/12/27 15:37:18;;;;;;;3.12;1.30;;;;;;;4.55;71.87;99862.21;1633596;83;21269;-92
2023/12/27 15:40:35;;;;;;;3.00;1.57;;;;;;;4.38;73.69;99869.78;1651443;83;21336;-93
2023/12/27 15:43:49;;;;;;;1.90;1.15;;;;;;;5.94;68.43;99874.62;1658728;83;21275;-93
2023/12/27 15:47:01;;;;;;;3.08;1.42;;;;;;;5.59;68.62;99883.07;1635612;84;21371;-91
2023/12/27 15:50:09;;;;;;;2.47;1.35;;;;;;;5.64;67.40;99875.32;1621336;86;21270;-92
2023/12/27 15:53:20;;;;;;;4.78;1.55;;;;;;;5.83;66.66;99875.66;1621003;86;21399;-92
2023/12/27 15:56:45;;;;;;;2.42;1.47;;;;;;;5.79;66.27;99875.14;1609211;85;21989;-93
2023/12/27 15:59:49;;;;;;;2.52;1.27;;;;;;;5.99;65.55;99890.78;1653516;84;21242;-93
2023/12/27 16:02:56;;;;;;;1.52;1.00;;;;;;;6.06;64.65;99893.70;1637535;85;22173;-93
2023/12/27 16:06:03;;;;;;;2.37;1.30;;;;;;;5.76;65.32;99907.16;1600492;87;21400;-91
2023/12/27 16:09:07;;;;;;;;;;;;;;;5.99;64.41;99903.50;1635948;85;21436;-93
2023/12/27 16:12:14;;;;;;;5.05;1.25;;;;;;;6.30;63.40;99905.25;1647617;84;20746;-92
2023/12/27 16:15:23;;;;;;;2.60;1.20;;;;;;;6.12;64.01;99906.67;1658007;85;21285;-92
2023/12/27 16:18:31;;;;;;;2.77;1.30;;;;;;;6.05;63.84;99923.23;1662901;85;21352;-93
2023/12/27 16:21:38;;;;;;;2.40;1.70;;;;;;;6.29;63.82;99919.85;1650393;84;21346;-93
2023/12/27 16:24:45;;;;;;;1.65;1.22;;;;;;;5.80;64.66;99930.27;1654684;84;21348;-93
2023/12/27 16:27:56;;;;;;;2.17;1.17;;;;;;;5.80;65.45;99929.77;1660445;84;21436;-93
2023/12/27 16:31:02;;;;;;;1.52;1.07;;;;;;;5.71;66.54;99936.62;1636834;85;21352;-94
2023/12/27 16:34:09;;;;;;;5.08;1.85;;;;;;;5.94;66.32;99928.91;1678448;83;21372;-94
2023/12/27 16:37:16;;;;;;;1.22;1.00;;;;;;;5.94;66.58;99927.05;1623285;85;21672;-94
2023/12/27 16:40:22;;;;;;;4.85;1.17;;;;;;;6.11;66.35;99937.02;1630011;86;21354;-94
2023/12/27 16:43:36;;;;;;;1.75;1.07;;;;;;;5.94;66.62;99951.48;1633483;85;21340;-94
2023/12/27 16:46:44;;;;;;;3.30;1.55;;;;;;;6.16;65.72;99956.91;1625719;82;21301;-93
2023/12/27 16:49:53;;;;;;;1.95;1.07;;;;;;;6.39;64.75;99962.71;1652478;84;21890;-93
2023/12/27 16:52:58;;;;;;;2.80;1.42;;;;;;;6.54;64.33;99967.06;1627858;85;21409;-93
2023/12/27 16:56:05;;;;;;;2.15;1.30;;;;;;;6.76;63.57;99969.27;1620651;85;21974;-93
2023/12/27 16:59:12;;;;;;;2.25;1.00;;;;;;;6.61;63.74;99985.30;1675982;83;22020;-94
2023/12/27 17:02:18;;;;;;;1.87;1.17;;;;;;;6.60;63.74;99983.60;1681980;83;21928;-94
2023/12/27 17:05:23;;;;;;;3.58;1.20;;;;;;;6.39;63.69;99983.09;1634779;84;21474;-93
2023/12/27 17:08:29;;;;;;;3.20;1.30;;;;;;;6.76;62.93;99988.30;1660170;84;21368;-92
2023/12/27 17:11:37;;;;;;;1.98;0.95;;;;;;;6.64;62.97;100004.02;1656153;84;21383;-94
2023/12/27 17:14:46;;;;;;;3.67;1.07;;;;;;;6.71;62.48;100006.95;1656730;84;21933;-93
2023/12/27 17:17:52;;;;;;;2.60;1.10;;;;;;;6.79;62.28;100004.80;1662486;84;21415;-93
2023/12/27 17:21:00;;;;;;;1.00;0.90;;;;;;;6.52;62.12;100009.34;1639739;86;21400;-95
2023/12/27 17:24:07;;;;;;;2.05;1.10;;;;;;;6.90;60.68;100007.24;1660024;84;21340;-94
2023/12/27 17:27:17;;;;;;;2.12;1.12;;;;;;;6.60;61.27;100020.80;1658196;85;21352;-93
2023/12/27 17:30:25;;;;;;;1.35;0.98;;;;;;;6.97;60.60;100026.52;1659184;84;22391;-93
2023/12/27 17:33:31;;;;;;;2.12;1.22;;;;;;;6.60;61.26;100033.87;1655275;83;21377;-93
2023/12/27 17:36:38;;;;;;;5.40;1.40;;;;;;;6.73;61.43;100033.48;1647015;84;21377;-94
2023/12/27 17:39:44;;;;;;;1.17;0.90;;;;;;;7.18;60.02;100030.53;1645661;86;21377;-93